sensor_id;sensor_type;location;lat;lon;timestamp;P1;durP1;ratioP1;P2;durP2;ratioP2
69714;SDS011;56981;53.532;49.398;2022-09-24T00:02:03;3.83;;;2.05;;
69714;SDS011;56981;53.532;49.398;2022-09-24T00:04:29;6.93;;;2.00;;
69714;SDS011;56981;53.532;49.398;2022-09-24T00:06:55;4.65;;;2.35;;
69714;SDS011;56981;53.532;49.398;2022-09-24T00:09:22;5.88;;;2.13;;
69714;SDS011;56981;53.532;49.398;2022-09-24T00:11:48;5.00;;;2.38;;
69714;SDS011;56981;53.532;49.398;2022-09-24T00:14:15;6.25;;;2.35;;
69714;SDS011;56981;53.532;49.398;2022-09-24T00:16:43;5.80;;;2.20;;
69714;SDS011;56981;53.532;49.398;2022-09-24T00:19:10;4.63;;;2.10;;
69714;SDS011;56981;53.532;49.398;2022-09-24T00:21:38;4.07;;;2.00;;
69714;SDS011;56981;53.532;49.398;2022-09-24T00:24:06;4.00;;;2.08;;
69714;SDS011;56981;53.532;49.398;2022-09-24T00:26:34;7.57;;;2.20;;
69714;SDS011;56981;53.532;49.398;2022-09-24T00:29:17;5.63;;;2.30;;
69714;SDS011;56981;53.532;49.398;2022-09-24T00:31:48;4.22;;;1.83;;
69714;SDS011;56981;53.532;49.398;2022-09-24T00:34:16;6.70;;;2.53;;
69714;SDS011;56981;53.532;49.398;2022-09-24T00:36:42;5.28;;;2.20;;
69714;SDS011;56981;53.532;49.398;2022-09-24T00:39:11;7.28;;;2.40;;
69714;SDS011;56981;53.532;49.398;2022-09-24T00:41:37;7.50;;;2.53;;
69714;SDS011;56981;53.532;49.398;2022-09-24T00:50:15;3.58;;;2.00;;
69714;SDS011;56981;53.532;49.398;2022-09-24T00:52:41;5.63;;;2.08;;
69714;SDS011;56981;53.532;49.398;2022-09-24T00:55:11;5.68;;;1.90;;
69714;SDS011;56981;53.532;49.398;2022-09-24T00:57:38;6.57;;;2.10;;
69714;SDS011;56981;53.532;49.398;2022-09-24T01:00:06;6.63;;;1.90;;
69714;SDS011;56981;53.532;49.398;2022-09-24T01:02:33;4.55;;;1.58;;
69714;SDS011;56981;53.532;49.398;2022-09-24T01:05:02;7.95;;;1.85;;
69714;SDS011;56981;53.532;49.398;2022-09-24T01:07:28;8.02;;;1.98;;
69714;SDS011;56981;53.532;49.398;2022-09-24T01:09:54;3.90;;;1.73;;
69714;SDS011;56981;53.532;49.398;2022-09-24T01:14:58;7.90;;;2.50;;
69714;SDS011;56981;53.532;49.398;2022-09-24T01:17:49;5.13;;;2.10;;
69714;SDS011;56981;53.532;49.398;2022-09-24T01:31:14;4.32;;;2.25;;
69714;SDS011;56981;53.532;49.398;2022-09-24T01:33:44;7.32;;;2.00;;
69714;SDS011;56981;53.532;49.398;2022-09-24T01:36:13;7.10;;;2.00;;
69714;SDS011;56981;53.532;49.398;2022-09-24T01:38:40;5.82;;;2.20;;
69714;SDS011;56981;53.532;49.398;2022-09-24T01:41:09;4.95;;;2.13;;
69714;SDS011;56981;53.532;49.398;2022-09-24T01:43:36;6.55;;;2.08;;
69714;SDS011;56981;53.532;49.398;2022-09-24T01:46:04;6.82;;;2.33;;
69714;SDS011;56981;53.532;49.398;2022-09-24T01:48:37;4.82;;;2.20;;
69714;SDS011;56981;53.532;49.398;2022-09-24T01:54:11;5.97;;;2.13;;
69714;SDS011;56981;53.532;49.398;2022-09-24T01:57:07;5.82;;;2.50;;
69714;SDS011;56981;53.532;49.398;2022-09-24T01:59:38;6.97;;;2.00;;
69714;SDS011;56981;53.532;49.398;2022-09-24T02:02:15;6.68;;;1.90;;
69714;SDS011;56981;53.532;49.398;2022-09-24T02:05:13;6.50;;;1.95;;
69714;SDS011;56981;53.532;49.398;2022-09-24T02:10:19;2.85;;;1.75;;
69714;SDS011;56981;53.532;49.398;2022-09-24T02:12:48;3.97;;;1.98;;
69714;SDS011;56981;53.532;49.398;2022-09-24T02:15:20;4.53;;;2.00;;
69714;SDS011;56981;53.532;49.398;2022-09-24T02:17:57;5.43;;;1.92;;
69714;SDS011;56981;53.532;49.398;2022-09-24T02:20:28;4.30;;;1.83;;
69714;SDS011;56981;53.532;49.398;2022-09-24T02:22:55;5.95;;;1.85;;
69714;SDS011;56981;53.532;49.398;2022-09-24T02:25:32;6.20;;;2.00;;
69714;SDS011;56981;53.532;49.398;2022-09-24T02:28:04;6.88;;;2.30;;
69714;SDS011;56981;53.532;49.398;2022-09-24T02:30:36;5.80;;;2.10;;
69714;SDS011;56981;53.532;49.398;2022-09-24T02:33:08;4.38;;;2.05;;
69714;SDS011;56981;53.532;49.398;2022-09-24T02:35:56;2.42;;;1.60;;
69714;SDS011;56981;53.532;49.398;2022-09-24T02:38:23;5.10;;;2.60;;
69714;SDS011;56981;53.532;49.398;2022-09-24T02:40:49;6.22;;;1.85;;
69714;SDS011;56981;53.532;49.398;2022-09-24T02:43:15;4.85;;;1.95;;
69714;SDS011;56981;53.532;49.398;2022-09-24T02:45:42;6.25;;;2.13;;
69714;SDS011;56981;53.532;49.398;2022-09-24T02:48:08;4.88;;;1.80;;
69714;SDS011;56981;53.532;49.398;2022-09-24T02:50:34;5.35;;;1.70;;
69714;SDS011;56981;53.532;49.398;2022-09-24T02:53:00;6.95;;;2.30;;
69714;SDS011;56981;53.532;49.398;2022-09-24T02:55:26;6.95;;;2.45;;
69714;SDS011;56981;53.532;49.398;2022-09-24T02:57:52;6.63;;;2.20;;
69714;SDS011;56981;53.532;49.398;2022-09-24T03:00:19;6.43;;;1.95;;
69714;SDS011;56981;53.532;49.398;2022-09-24T03:02:45;4.82;;;2.10;;
69714;SDS011;56981;53.532;49.398;2022-09-24T03:05:14;4.75;;;2.05;;
69714;SDS011;56981;53.532;49.398;2022-09-24T03:07:43;11.27;;;2.88;;
69714;SDS011;56981;53.532;49.398;2022-09-24T03:10:10;6.22;;;2.65;;
69714;SDS011;56981;53.532;49.398;2022-09-24T03:12:36;3.70;;;2.25;;
69714;SDS011;56981;53.532;49.398;2022-09-24T03:15:02;7.97;;;3.03;;
69714;SDS011;56981;53.532;49.398;2022-09-24T03:17:28;6.72;;;2.40;;
69714;SDS011;56981;53.532;49.398;2022-09-24T03:19:55;8.15;;;2.47;;
69714;SDS011;56981;53.532;49.398;2022-09-24T03:22:21;4.07;;;2.30;;
69714;SDS011;56981;53.532;49.398;2022-09-24T03:24:47;3.55;;;2.50;;
69714;SDS011;56981;53.532;49.398;2022-09-24T03:27:13;4.25;;;2.70;;
69714;SDS011;56981;53.532;49.398;2022-09-24T03:29:40;5.65;;;2.97;;
69714;SDS011;56981;53.532;49.398;2022-09-24T03:32:24;5.68;;;3.10;;
69714;SDS011;56981;53.532;49.398;2022-09-24T03:34:50;7.05;;;3.00;;
69714;SDS011;56981;53.532;49.398;2022-09-24T03:37:16;6.10;;;3.22;;
69714;SDS011;56981;53.532;49.398;2022-09-24T03:39:42;8.32;;;3.70;;
69714;SDS011;56981;53.532;49.398;2022-09-24T03:42:08;6.78;;;3.85;;
69714;SDS011;56981;53.532;49.398;2022-09-24T03:44:35;11.95;;;4.15;;
69714;SDS011;56981;53.532;49.398;2022-09-24T03:47:01;6.55;;;4.13;;
69714;SDS011;56981;53.532;49.398;2022-09-24T03:49:26;5.75;;;4.28;;
69714;SDS011;56981;53.532;49.398;2022-09-24T03:51:52;8.82;;;4.53;;
69714;SDS011;56981;53.532;49.398;2022-09-24T03:54:18;10.70;;;4.47;;
69714;SDS011;56981;53.532;49.398;2022-09-24T03:56:44;10.32;;;5.25;;
69714;SDS011;56981;53.532;49.398;2022-09-24T03:59:10;10.65;;;5.20;;
69714;SDS011;56981;53.532;49.398;2022-09-24T04:01:36;7.68;;;5.32;;
69714;SDS011;56981;53.532;49.398;2022-09-24T04:04:03;7.57;;;5.22;;
69714;SDS011;56981;53.532;49.398;2022-09-24T04:06:29;12.18;;;5.38;;
69714;SDS011;56981;53.532;49.398;2022-09-24T04:08:56;7.22;;;5.60;;
69714;SDS011;56981;53.532;49.398;2022-09-24T04:11:23;7.70;;;5.95;;
69714;SDS011;56981;53.532;49.398;2022-09-24T04:13:49;10.30;;;5.28;;
69714;SDS011;56981;53.532;49.398;2022-09-24T04:16:16;10.80;;;6.07;;
69714;SDS011;56981;53.532;49.398;2022-09-24T04:18:42;10.45;;;6.00;;
69714;SDS011;56981;53.532;49.398;2022-09-24T04:21:08;9.20;;;5.70;;
69714;SDS011;56981;53.532;49.398;2022-09-24T04:23:34;11.25;;;6.13;;
69714;SDS011;56981;53.532;49.398;2022-09-24T04:26:01;10.73;;;5.53;;
69714;SDS011;56981;53.532;49.398;2022-09-24T04:28:27;10.52;;;6.28;;
69714;SDS011;56981;53.532;49.398;2022-09-24T04:30:54;11.85;;;6.25;;
69714;SDS011;56981;53.532;49.398;2022-09-24T04:33:20;10.23;;;6.22;;
69714;SDS011;56981;53.532;49.398;2022-09-24T04:35:46;16.20;;;6.65;;
69714;SDS011;56981;53.532;49.398;2022-09-24T04:38:12;11.55;;;6.43;;
69714;SDS011;56981;53.532;49.398;2022-09-24T04:40:38;12.82;;;6.32;;
69714;SDS011;56981;53.532;49.398;2022-09-24T04:43:05;9.20;;;6.70;;
69714;SDS011;56981;53.532;49.398;2022-09-24T04:45:31;11.00;;;6.47;;
69714;SDS011;56981;53.532;49.398;2022-09-24T04:47:58;37.45;;;9.55;;
69714;SDS011;56981;53.532;49.398;2022-09-24T04:50:25;8.77;;;6.38;;
69714;SDS011;56981;53.532;49.398;2022-09-24T04:52:53;10.65;;;6.88;;
69714;SDS011;56981;53.532;49.398;2022-09-24T04:55:20;7.90;;;7.10;;
69714;SDS011;56981;53.532;49.398;2022-09-24T04:57:47;9.98;;;7.43;;
69714;SDS011;56981;53.532;49.398;2022-09-24T05:00:15;11.43;;;7.85;;
69714;SDS011;56981;53.532;49.398;2022-09-24T05:02:42;8.45;;;7.43;;
69714;SDS011;56981;53.532;49.398;2022-09-24T05:05:09;14.27;;;8.13;;
69714;SDS011;56981;53.532;49.398;2022-09-24T05:07:36;13.98;;;8.32;;
69714;SDS011;56981;53.532;49.398;2022-09-24T05:10:02;10.55;;;7.75;;
69714;SDS011;56981;53.532;49.398;2022-09-24T05:12:29;11.07;;;8.02;;
69714;SDS011;56981;53.532;49.398;2022-09-24T05:14:55;10.25;;;8.68;;
69714;SDS011;56981;53.532;49.398;2022-09-24T05:17:21;15.52;;;9.70;;
69714;SDS011;56981;53.532;49.398;2022-09-24T05:19:47;15.82;;;8.68;;
69714;SDS011;56981;53.532;49.398;2022-09-24T05:22:13;12.20;;;9.05;;
69714;SDS011;56981;53.532;49.398;2022-09-24T05:24:39;17.40;;;8.80;;
69714;SDS011;56981;53.532;49.398;2022-09-24T05:27:05;11.32;;;8.40;;
69714;SDS011;56981;53.532;49.398;2022-09-24T05:29:43;13.93;;;8.95;;
69714;SDS011;56981;53.532;49.398;2022-09-24T05:32:10;14.18;;;8.57;;
69714;SDS011;56981;53.532;49.398;2022-09-24T05:34:38;10.75;;;9.27;;
69714;SDS011;56981;53.532;49.398;2022-09-24T05:37:06;14.55;;;9.40;;
69714;SDS011;56981;53.532;49.398;2022-09-24T05:39:32;14.82;;;9.68;;
69714;SDS011;56981;53.532;49.398;2022-09-24T05:41:57;16.10;;;9.05;;
69714;SDS011;56981;53.532;49.398;2022-09-24T05:44:23;14.27;;;8.88;;
69714;SDS011;56981;53.532;49.398;2022-09-24T05:46:50;16.60;;;9.55;;
69714;SDS011;56981;53.532;49.398;2022-09-24T05:49:17;13.18;;;8.85;;
69714;SDS011;56981;53.532;49.398;2022-09-24T05:51:43;14.57;;;9.50;;
69714;SDS011;56981;53.532;49.398;2022-09-24T05:54:09;13.18;;;9.13;;
69714;SDS011;56981;53.532;49.398;2022-09-24T05:56:36;16.52;;;9.45;;
69714;SDS011;56981;53.532;49.398;2022-09-24T05:59:03;12.77;;;8.07;;
69714;SDS011;56981;53.532;49.398;2022-09-24T06:01:29;14.02;;;8.23;;
69714;SDS011;56981;53.532;49.398;2022-09-24T06:03:56;16.17;;;8.80;;
69714;SDS011;56981;53.532;49.398;2022-09-24T06:06:23;9.05;;;8.15;;
69714;SDS011;56981;53.532;49.398;2022-09-24T06:08:50;10.68;;;7.65;;
69714;SDS011;56981;53.532;49.398;2022-09-24T06:11:17;12.43;;;7.50;;
69714;SDS011;56981;53.532;49.398;2022-09-24T06:13:43;9.82;;;7.90;;
69714;SDS011;56981;53.532;49.398;2022-09-24T06:16:10;7.85;;;6.47;;
69714;SDS011;56981;53.532;49.398;2022-09-24T06:18:40;10.27;;;6.80;;
69714;SDS011;56981;53.532;49.398;2022-09-24T06:21:08;10.60;;;6.97;;
69714;SDS011;56981;53.532;49.398;2022-09-24T06:23:39;17.17;;;7.40;;
69714;SDS011;56981;53.532;49.398;2022-09-24T06:26:08;30.75;;;8.93;;
69714;SDS011;56981;53.532;49.398;2022-09-24T06:28:35;10.43;;;7.28;;
69714;SDS011;56981;53.532;49.398;2022-09-24T06:31:03;13.15;;;8.70;;
69714;SDS011;56981;53.532;49.398;2022-09-24T06:33:30;10.25;;;7.70;;
69714;SDS011;56981;53.532;49.398;2022-09-24T06:36:00;14.40;;;8.15;;
69714;SDS011;56981;53.532;49.398;2022-09-24T06:38:28;13.38;;;7.25;;
69714;SDS011;56981;53.532;49.398;2022-09-24T06:41:02;6.80;;;4.82;;
69714;SDS011;56981;53.532;49.398;2022-09-24T06:43:29;7.30;;;5.28;;
69714;SDS011;56981;53.532;49.398;2022-09-24T06:45:56;7.15;;;4.80;;
69714;SDS011;56981;53.532;49.398;2022-09-24T06:48:23;6.72;;;4.78;;
69714;SDS011;56981;53.532;49.398;2022-09-24T06:50:50;6.30;;;4.70;;
69714;SDS011;56981;53.532;49.398;2022-09-24T06:53:17;7.35;;;3.95;;
69714;SDS011;56981;53.532;49.398;2022-09-24T06:55:43;6.15;;;4.18;;
69714;SDS011;56981;53.532;49.398;2022-09-24T06:58:11;8.50;;;4.07;;
69714;SDS011;56981;53.532;49.398;2022-09-24T07:00:41;6.05;;;4.25;;
69714;SDS011;56981;53.532;49.398;2022-09-24T07:03:14;5.88;;;3.78;;
69714;SDS011;56981;53.532;49.398;2022-09-24T07:05:41;7.95;;;4.30;;
69714;SDS011;56981;53.532;49.398;2022-09-24T07:08:07;6.57;;;3.35;;
69714;SDS011;56981;53.532;49.398;2022-09-24T07:10:33;9.02;;;3.15;;
69714;SDS011;56981;53.532;49.398;2022-09-24T07:12:59;4.68;;;3.00;;
69714;SDS011;56981;53.532;49.398;2022-09-24T07:15:25;4.82;;;2.40;;
69714;SDS011;56981;53.532;49.398;2022-09-24T07:17:55;4.75;;;2.85;;
69714;SDS011;56981;53.532;49.398;2022-09-24T07:20:21;2.88;;;2.38;;
69714;SDS011;56981;53.532;49.398;2022-09-24T07:22:49;8.75;;;2.90;;
69714;SDS011;56981;53.532;49.398;2022-09-24T07:25:15;5.18;;;2.92;;
69714;SDS011;56981;53.532;49.398;2022-09-24T07:27:41;5.25;;;2.67;;
69714;SDS011;56981;53.532;49.398;2022-09-24T07:30:07;2.30;;;2.10;;
69714;SDS011;56981;53.532;49.398;2022-09-24T07:32:34;3.10;;;2.13;;
69714;SDS011;56981;53.532;49.398;2022-09-24T07:35:00;2.83;;;2.13;;
69714;SDS011;56981;53.532;49.398;2022-09-24T07:37:26;2.67;;;1.80;;
69714;SDS011;56981;53.532;49.398;2022-09-24T07:40:03;6.38;;;2.05;;
69714;SDS011;56981;53.532;49.398;2022-09-24T07:42:29;2.30;;;1.83;;
69714;SDS011;56981;53.532;49.398;2022-09-24T07:44:55;4.80;;;2.10;;
69714;SDS011;56981;53.532;49.398;2022-09-24T07:47:21;4.95;;;1.88;;
69714;SDS011;56981;53.532;49.398;2022-09-24T07:49:48;2.47;;;2.28;;
69714;SDS011;56981;53.532;49.398;2022-09-24T07:52:14;3.70;;;1.90;;
69714;SDS011;56981;53.532;49.398;2022-09-24T07:54:40;2.85;;;2.00;;
69714;SDS011;56981;53.532;49.398;2022-09-24T07:57:09;1.90;;;1.70;;
69714;SDS011;56981;53.532;49.398;2022-09-24T07:59:39;2.80;;;1.90;;
69714;SDS011;56981;53.532;49.398;2022-09-24T08:02:15;2.15;;;1.92;;
69714;SDS011;56981;53.532;49.398;2022-09-24T08:04:42;3.50;;;1.70;;
69714;SDS011;56981;53.532;49.398;2022-09-24T08:07:09;3.38;;;1.90;;
69714;SDS011;56981;53.532;49.398;2022-09-24T08:09:36;13.57;;;2.80;;
69714;SDS011;56981;53.532;49.398;2022-09-24T08:12:02;2.53;;;1.73;;
69714;SDS011;56981;53.532;49.398;2022-09-24T08:14:29;2.35;;;2.10;;
69714;SDS011;56981;53.532;49.398;2022-09-24T08:16:55;3.40;;;1.70;;
69714;SDS011;56981;53.532;49.398;2022-09-24T08:19:21;2.42;;;1.73;;
69714;SDS011;56981;53.532;49.398;2022-09-24T08:21:47;2.03;;;1.58;;
69714;SDS011;56981;53.532;49.398;2022-09-24T08:24:13;2.40;;;1.25;;
69714;SDS011;56981;53.532;49.398;2022-09-24T08:26:40;4.03;;;1.50;;
69714;SDS011;56981;53.532;49.398;2022-09-24T08:29:06;3.15;;;1.60;;
69714;SDS011;56981;53.532;49.398;2022-09-24T08:31:32;2.20;;;1.48;;
69714;SDS011;56981;53.532;49.398;2022-09-24T08:33:59;6.50;;;1.65;;
69714;SDS011;56981;53.532;49.398;2022-09-24T08:36:25;2.45;;;1.15;;
69714;SDS011;56981;53.532;49.398;2022-09-24T08:38:54;1.80;;;1.20;;
69714;SDS011;56981;53.532;49.398;2022-09-24T08:41:40;2.05;;;1.35;;
69714;SDS011;56981;53.532;49.398;2022-09-24T08:50:26;2.78;;;1.10;;
69714;SDS011;56981;53.532;49.398;2022-09-24T08:53:05;2.15;;;0.70;;
69714;SDS011;56981;53.532;49.398;2022-09-24T08:55:45;3.65;;;1.00;;
69714;SDS011;56981;53.532;49.398;2022-09-24T09:00:43;2.70;;;1.00;;
69714;SDS011;56981;53.532;49.398;2022-09-24T09:11:45;1.10;;;0.52;;
69714;SDS011;56981;53.532;49.398;2022-09-24T09:14:24;1.08;;;0.60;;
69714;SDS011;56981;53.532;49.398;2022-09-24T09:19:18;1.38;;;0.57;;
69714;SDS011;56981;53.532;49.398;2022-09-24T09:21:58;1.60;;;0.63;;
69714;SDS011;56981;53.532;49.398;2022-09-24T09:24:49;1.40;;;0.55;;
69714;SDS011;56981;53.532;49.398;2022-09-24T09:27:17;0.77;;;0.70;;
69714;SDS011;56981;53.532;49.398;2022-09-24T09:29:46;0.50;;;0.50;;
69714;SDS011;56981;53.532;49.398;2022-09-24T09:38:06;6.53;;;1.05;;
69714;SDS011;56981;53.532;49.398;2022-09-24T09:43:36;0.57;;;0.57;;
69714;SDS011;56981;53.532;49.398;2022-09-24T09:46:09;0.95;;;0.60;;
69714;SDS011;56981;53.532;49.398;2022-09-24T09:48:44;0.60;;;0.60;;
69714;SDS011;56981;53.532;49.398;2022-09-24T09:51:20;1.20;;;0.65;;
69714;SDS011;56981;53.532;49.398;2022-09-24T09:53:58;1.75;;;0.80;;
69714;SDS011;56981;53.532;49.398;2022-09-24T09:56:29;1.75;;;0.65;;
69714;SDS011;56981;53.532;49.398;2022-09-24T10:01:39;11.50;;;1.35;;
69714;SDS011;56981;53.532;49.398;2022-09-24T10:07:10;2.67;;;0.70;;
69714;SDS011;56981;53.532;49.398;2022-09-24T10:09:38;1.13;;;0.85;;
69714;SDS011;56981;53.532;49.398;2022-09-24T10:12:16;0.85;;;0.73;;
69714;SDS011;56981;53.532;49.398;2022-09-24T10:14:42;1.75;;;0.80;;
69714;SDS011;56981;53.532;49.398;2022-09-24T10:17:13;3.53;;;0.90;;
69714;SDS011;56981;53.532;49.398;2022-09-24T10:19:42;1.90;;;0.75;;
69714;SDS011;56981;53.532;49.398;2022-09-24T10:22:22;1.48;;;0.80;;
69714;SDS011;56981;53.532;49.398;2022-09-24T10:24:51;5.30;;;0.80;;
69714;SDS011;56981;53.532;49.398;2022-09-24T10:27:52;4.43;;;1.10;;
69714;SDS011;56981;53.532;49.398;2022-09-24T10:30:12;0.80;;;0.63;;
69714;SDS011;56981;53.532;49.398;2022-09-24T10:32:59;1.75;;;1.02;;
69714;SDS011;56981;53.532;49.398;2022-09-24T10:38:00;1.17;;;0.90;;
69714;SDS011;56981;53.532;49.398;2022-09-24T10:40:29;1.20;;;1.10;;
69714;SDS011;56981;53.532;49.398;2022-09-24T10:43:02;0.75;;;0.75;;
69714;SDS011;56981;53.532;49.398;2022-09-24T10:45:37;2.00;;;1.00;;
69714;SDS011;56981;53.532;49.398;2022-09-24T10:51:12;0.98;;;0.98;;
69714;SDS011;56981;53.532;49.398;2022-09-24T11:01:41;3.72;;;1.00;;
69714;SDS011;56981;53.532;49.398;2022-09-24T11:09:55;0.90;;;0.90;;
69714;SDS011;56981;53.532;49.398;2022-09-24T11:12:38;2.08;;;1.10;;
69714;SDS011;56981;53.532;49.398;2022-09-24T11:20:49;4.30;;;1.40;;
69714;SDS011;56981;53.532;49.398;2022-09-24T11:37:17;1.95;;;1.40;;
69714;SDS011;56981;53.532;49.398;2022-09-24T11:40:03;4.10;;;1.48;;
69714;SDS011;56981;53.532;49.398;2022-09-24T11:43:13;2.15;;;1.10;;
69714;SDS011;56981;53.532;49.398;2022-09-24T11:56:46;2.17;;;1.15;;
69714;SDS011;56981;53.532;49.398;2022-09-24T12:01:52;1.85;;;1.75;;
69714;SDS011;56981;53.532;49.398;2022-09-24T12:04:28;2.83;;;1.58;;
69714;SDS011;56981;53.532;49.398;2022-09-24T12:13:24;1.60;;;1.50;;
69714;SDS011;56981;53.532;49.398;2022-09-24T12:15:55;1.77;;;1.45;;
69714;SDS011;56981;53.532;49.398;2022-09-24T12:18:32;1.85;;;1.75;;
69714;SDS011;56981;53.532;49.398;2022-09-24T12:21:05;4.50;;;1.83;;
69714;SDS011;56981;53.532;49.398;2022-09-24T12:23:36;4.40;;;2.00;;
69714;SDS011;56981;53.532;49.398;2022-09-24T12:26:07;2.30;;;1.77;;
69714;SDS011;56981;53.532;49.398;2022-09-24T12:28:40;1.70;;;1.30;;
69714;SDS011;56981;53.532;49.398;2022-09-24T12:31:51;2.95;;;1.80;;
69714;SDS011;56981;53.532;49.398;2022-09-24T12:37:14;4.07;;;2.95;;
69714;SDS011;56981;53.532;49.398;2022-09-24T12:42:22;8.07;;;5.40;;
69714;SDS011;56981;53.532;49.398;2022-09-24T12:44:58;2.00;;;1.80;;
69714;SDS011;56981;53.532;49.398;2022-09-24T12:47:27;5.05;;;3.47;;
69714;SDS011;56981;53.532;49.398;2022-09-24T12:50:00;3.85;;;2.15;;
69714;SDS011;56981;53.532;49.398;2022-09-24T12:52:39;4.07;;;3.00;;
69714;SDS011;56981;53.532;49.398;2022-09-24T12:55:23;2.17;;;1.60;;
69714;SDS011;56981;53.532;49.398;2022-09-24T12:57:54;3.10;;;1.90;;
69714;SDS011;56981;53.532;49.398;2022-09-24T13:00:37;2.15;;;1.70;;
69714;SDS011;56981;53.532;49.398;2022-09-24T13:06:03;10.85;;;3.25;;
69714;SDS011;56981;53.532;49.398;2022-09-24T13:08:43;3.17;;;1.63;;
69714;SDS011;56981;53.532;49.398;2022-09-24T13:16:42;2.88;;;1.83;;
69714;SDS011;56981;53.532;49.398;2022-09-24T13:24:53;3.40;;;2.10;;
69714;SDS011;56981;53.532;49.398;2022-09-24T13:27:34;3.75;;;2.65;;
69714;SDS011;56981;53.532;49.398;2022-09-24T13:30:04;4.13;;;1.60;;
69714;SDS011;56981;53.532;49.398;2022-09-24T13:32:52;3.90;;;1.90;;
69714;SDS011;56981;53.532;49.398;2022-09-24T13:36:21;5.38;;;2.50;;
69714;SDS011;56981;53.532;49.398;2022-09-24T13:38:57;2.03;;;1.70;;
69714;SDS011;56981;53.532;49.398;2022-09-24T13:44:51;20.27;;;2.97;;
69714;SDS011;56981;53.532;49.398;2022-09-24T13:49:53;2.75;;;1.80;;
69714;SDS011;56981;53.532;49.398;2022-09-24T13:56:10;3.95;;;1.73;;
69714;SDS011;56981;53.532;49.398;2022-09-24T13:58:33;4.82;;;2.05;;
69714;SDS011;56981;53.532;49.398;2022-09-24T14:01:03;2.60;;;2.20;;
69714;SDS011;56981;53.532;49.398;2022-09-24T14:03:35;5.03;;;2.33;;
69714;SDS011;56981;53.532;49.398;2022-09-24T14:06:09;2.97;;;2.67;;
69714;SDS011;56981;53.532;49.398;2022-09-24T14:08:46;3.17;;;2.88;;
69714;SDS011;56981;53.532;49.398;2022-09-24T14:13:49;7.13;;;3.30;;
69714;SDS011;56981;53.532;49.398;2022-09-24T14:16:17;5.13;;;2.90;;
69714;SDS011;56981;53.532;49.398;2022-09-24T14:19:03;3.70;;;3.30;;
69714;SDS011;56981;53.532;49.398;2022-09-24T14:21:31;3.42;;;2.83;;
69714;SDS011;56981;53.532;49.398;2022-09-24T14:24:24;4.57;;;3.15;;
69714;SDS011;56981;53.532;49.398;2022-09-24T14:26:59;3.05;;;2.75;;
69714;SDS011;56981;53.532;49.398;2022-09-24T14:29:31;4.93;;;3.22;;
69714;SDS011;56981;53.532;49.398;2022-09-24T14:32:05;29.40;;;20.98;;
69714;SDS011;56981;53.532;49.398;2022-09-24T14:34:33;12.02;;;9.07;;
69714;SDS011;56981;53.532;49.398;2022-09-24T14:37:08;4.50;;;4.10;;
69714;SDS011;56981;53.532;49.398;2022-09-24T14:39:46;6.47;;;3.22;;
69714;SDS011;56981;53.532;49.398;2022-09-24T14:42:24;10.07;;;4.65;;
69714;SDS011;56981;53.532;49.398;2022-09-24T14:44:55;3.03;;;2.25;;
69714;SDS011;56981;53.532;49.398;2022-09-24T14:47:28;5.03;;;2.17;;
69714;SDS011;56981;53.532;49.398;2022-09-24T14:49:56;7.47;;;2.42;;
69714;SDS011;56981;53.532;49.398;2022-09-24T14:52:32;4.53;;;2.60;;
69714;SDS011;56981;53.532;49.398;2022-09-24T14:55:14;3.53;;;2.45;;
69714;SDS011;56981;53.532;49.398;2022-09-24T14:57:42;2.72;;;2.05;;
69714;SDS011;56981;53.532;49.398;2022-09-24T15:00:26;5.05;;;4.55;;
69714;SDS011;56981;53.532;49.398;2022-09-24T15:02:59;3.88;;;2.45;;
69714;SDS011;56981;53.532;49.398;2022-09-24T15:05:29;5.00;;;3.45;;
69714;SDS011;56981;53.532;49.398;2022-09-24T15:10:59;5.55;;;1.63;;
69714;SDS011;56981;53.532;49.398;2022-09-24T15:13:31;2.05;;;1.83;;
69714;SDS011;56981;53.532;49.398;2022-09-24T15:16:25;3.85;;;1.48;;
69714;SDS011;56981;53.532;49.398;2022-09-24T15:19:14;3.25;;;1.48;;
69714;SDS011;56981;53.532;49.398;2022-09-24T15:21:42;1.95;;;1.50;;
69714;SDS011;56981;53.532;49.398;2022-09-24T15:24:09;6.47;;;1.80;;
69714;SDS011;56981;53.532;49.398;2022-09-24T15:26:37;1.60;;;1.40;;
69714;SDS011;56981;53.532;49.398;2022-09-24T15:29:06;3.05;;;1.80;;
69714;SDS011;56981;53.532;49.398;2022-09-24T15:31:32;3.85;;;1.95;;
69714;SDS011;56981;53.532;49.398;2022-09-24T15:33:58;2.25;;;1.80;;
69714;SDS011;56981;53.532;49.398;2022-09-24T15:36:24;4.68;;;1.80;;
69714;SDS011;56981;53.532;49.398;2022-09-24T15:38:51;5.93;;;1.50;;
69714;SDS011;56981;53.532;49.398;2022-09-24T15:41:22;3.92;;;3.05;;
69714;SDS011;56981;53.532;49.398;2022-09-24T15:43:48;3.38;;;2.20;;
69714;SDS011;56981;53.532;49.398;2022-09-24T15:46:14;3.90;;;1.80;;
69714;SDS011;56981;53.532;49.398;2022-09-24T15:48:40;2.85;;;1.60;;
69714;SDS011;56981;53.532;49.398;2022-09-24T15:51:08;3.63;;;1.90;;
69714;SDS011;56981;53.532;49.398;2022-09-24T15:53:35;1.98;;;1.50;;
69714;SDS011;56981;53.532;49.398;2022-09-24T15:56:02;1.90;;;1.60;;
69714;SDS011;56981;53.532;49.398;2022-09-24T15:58:28;1.52;;;1.40;;
69714;SDS011;56981;53.532;49.398;2022-09-24T16:00:54;1.58;;;1.45;;
69714;SDS011;56981;53.532;49.398;2022-09-24T16:03:27;3.97;;;2.55;;
69714;SDS011;56981;53.532;49.398;2022-09-24T16:05:55;2.70;;;1.98;;
69714;SDS011;56981;53.532;49.398;2022-09-24T16:08:22;4.25;;;1.83;;
69714;SDS011;56981;53.532;49.398;2022-09-24T16:10:48;2.85;;;1.90;;
69714;SDS011;56981;53.532;49.398;2022-09-24T16:13:15;1.70;;;1.60;;
69714;SDS011;56981;53.532;49.398;2022-09-24T16:15:42;2.78;;;2.22;;
69714;SDS011;56981;53.532;49.398;2022-09-24T16:18:10;2.55;;;2.00;;
69714;SDS011;56981;53.532;49.398;2022-09-24T16:20:39;2.60;;;2.08;;
69714;SDS011;56981;53.532;49.398;2022-09-24T16:23:06;3.20;;;1.90;;
69714;SDS011;56981;53.532;49.398;2022-09-24T16:25:38;3.10;;;2.08;;
69714;SDS011;56981;53.532;49.398;2022-09-24T16:28:05;2.60;;;1.98;;
69714;SDS011;56981;53.532;49.398;2022-09-24T16:30:31;7.63;;;2.42;;
69714;SDS011;56981;53.532;49.398;2022-09-24T16:32:57;4.57;;;2.17;;
69714;SDS011;56981;53.532;49.398;2022-09-24T16:35:23;4.72;;;2.35;;
69714;SDS011;56981;53.532;49.398;2022-09-24T16:37:49;6.78;;;2.72;;
69714;SDS011;56981;53.532;49.398;2022-09-24T16:40:14;4.40;;;2.20;;
69714;SDS011;56981;53.532;49.398;2022-09-24T16:42:40;2.00;;;1.80;;
69714;SDS011;56981;53.532;49.398;2022-09-24T16:45:06;2.22;;;1.55;;
69714;SDS011;56981;53.532;49.398;2022-09-24T16:47:34;4.07;;;2.00;;
69714;SDS011;56981;53.532;49.398;2022-09-24T16:50:00;1.83;;;1.70;;
69714;SDS011;56981;53.532;49.398;2022-09-24T16:52:28;1.90;;;1.73;;
69714;SDS011;56981;53.532;49.398;2022-09-24T16:54:56;2.83;;;1.90;;
69714;SDS011;56981;53.532;49.398;2022-09-24T16:57:22;3.22;;;1.80;;
69714;SDS011;56981;53.532;49.398;2022-09-24T16:59:48;2.17;;;1.95;;
69714;SDS011;56981;53.532;49.398;2022-09-24T17:02:17;1.70;;;1.60;;
69714;SDS011;56981;53.532;49.398;2022-09-24T17:04:44;1.98;;;1.65;;
69714;SDS011;56981;53.532;49.398;2022-09-24T17:07:10;4.80;;;1.75;;
69714;SDS011;56981;53.532;49.398;2022-09-24T17:09:37;2.08;;;1.30;;
69714;SDS011;56981;53.532;49.398;2022-09-24T17:12:22;2.78;;;1.80;;
69714;SDS011;56981;53.532;49.398;2022-09-24T17:14:48;2.22;;;1.65;;
69714;SDS011;56981;53.532;49.398;2022-09-24T17:17:14;3.65;;;1.60;;
69714;SDS011;56981;53.532;49.398;2022-09-24T17:19:40;2.13;;;1.75;;
69714;SDS011;56981;53.532;49.398;2022-09-24T17:22:06;2.40;;;2.20;;
69714;SDS011;56981;53.532;49.398;2022-09-24T17:24:32;3.00;;;1.70;;